This is the latest recevied weather packets stored in our database for station/object OH6LSL. If no packets are shown the sender has not sent any weather packets the latest 10 day(s).
| Time | Temp. | Humidity | Pressure | Rain* | Wind** | Luminosity | Snow |
|---|---|---|---|---|---|---|---|
| 1777670682 | 5.56° C | 65% | 1008.5 hPa | 0 mm | - | 0 W/m² | - |
| 1777668884 | 6.11° C | 65% | 1008.9 hPa | 0 mm | - | 0 W/m² | - |
| 1777665291 | 7.22° C | 62% | 1009.4 hPa | 0 mm | - | 0 W/m² | - |
| 1777664073 | 7.22° C | 60% | 1009.5 hPa | 0 mm | - | 0 W/m² | - |
| 1777658085 | 11.11° C | 43% | 1009.2 hPa | 0 mm | - | 16 W/m² | - |
| 1777656309 | 11.67° C | 43% | 1009.4 hPa | 0 mm | - | 26 W/m² | - |
| 1777655086 | 12.22° C | 44% | 1009.6 hPa | 0 mm | - | 28 W/m² | - |
| 1777654486 | 12.22° C | 44% | 1009.6 hPa | 0 mm | - | 33 W/m² | - |
| 1777650890 | 13.33° C | 42% | 1010 hPa | 0 mm | - | 62 W/m² | - |
| 1777649111 | 14.44° C | 40% | 1010.3 hPa | 0 mm | - | 213 W/m² | - |
| 1777645492 | 15° C | 39% | 1010.5 hPa | 0 mm | - | 167 W/m² | - |
| 1777643088 | 15° C | 38% | 1010.8 hPa | 0 mm | - | 377 W/m² | - |
| 1777640690 | 13.89° C | 42% | 1011.2 hPa | 0 mm | - | 143 W/m² | - |
| 1777638890 | 14.44° C | 41% | 1011.5 hPa | 0 mm | - | 125 W/m² | - |
| 1777631076 | 15° C | 39% | 1012.7 hPa | 0 mm | - | 665 W/m² | - |
| 1777623883 | 12.22° C | 48% | 1013.6 hPa | 0 mm | - | 373 W/m² | - |
| 1777613106 | 7.78° C | 42% | 1014.4 hPa | 0 mm | - | 48 W/m² | - |
| 1777611884 | 7.22° C | 39% | 1014.4 hPa | 0 mm | - | 40 W/m² | - |
| 1777608276 | 4.44° C | 28% | 1014.6 hPa | 0 mm | - | 39 W/m² | - |
| 1777604681 | 3.33° C | 33% | 1015.1 hPa | 0 mm | - | 33 W/m² | - |
| 1777603501 | 3.33° C | 34% | 1015.3 hPa | 0 mm | - | 18 W/m² | - |
| 1777602879 | 3.33° C | 33% | 1015.3 hPa | 0 mm | - | 14 W/m² | - |
| 1777601081 | 3.33° C | 35% | 1015.5 hPa | 0 mm | - | 0 W/m² | - |
| 1777600506 | 3.33° C | 36% | 1015.5 hPa | 0 mm | - | 0 W/m² | - |
| 1777599886 | 2.78° C | 37% | 1015.6 hPa | 0 mm | - | 0 W/m² | - |
* Rain latest hour (hover to see other rain measurements)
** Current wind speed in m/s (hover to see current wind gust speed)